Time;durP1;ratioP1;P1;durP2;ratioP2;P2;SDS_P1;SDS_P2;PMS_P1;PMS_P2;Temp;Humidity;BMP_temperature;BMP_pressure;BME280_temperature;BME280_humidity;BME280_pressure;Samples;Min_cycle;Max_cycle;Signal;HPM_P1;HPM_P2
2023/10/22 00:01:25;;;;;;;0.93;0.50;;;;;;;;;;10363158;28;20073;-75
2023/10/22 00:06:29;;;;;;;3.53;0.52;;;;;;;;;;10364925;28;20058;-75
2023/10/22 00:11:32;;;;;;;1.52;0.47;;;;;;;;;;10363553;28;20116;-75
2023/10/22 00:16:37;;;;;;;2.67;0.82;;;;;;;;;;10364376;28;20487;-76
2023/10/22 00:21:40;;;;;;;2.70;0.50;;;;;;;;;;10363442;28;20057;-75
2023/10/22 00:26:44;;;;;;;2.92;0.50;;;;;;;;;;10362381;28;20046;-76
2023/10/22 00:31:48;;;;;;;5.15;1.00;;;;;;;;;;10363412;28;20046;-76
2023/10/22 00:36:52;;;;;;;3.60;0.50;;;;;;;;;;10366386;28;20105;-75
2023/10/22 00:41:55;;;;;;;2.03;0.60;;;;;;;;;;10363926;28;20385;-75
2023/10/22 00:47:00;;;;;;;1.48;0.50;;;;;;;;;;10362511;28;20748;-75
2023/10/22 00:52:04;;;;;;;0.90;0.50;;;;;;;;;;10365311;28;20038;-75
2023/10/22 00:57:08;;;;;;;2.20;0.73;;;;;;;;;;10362680;28;20038;-76
2023/10/22 01:02:13;;;;;;;4.03;0.65;;;;;;;;;;10363368;28;20046;-75
2023/10/22 01:07:17;;;;;;;1.98;0.70;;;;;;;;;;10367200;28;20041;-75
2023/10/22 01:12:20;;;;;;;1.38;0.50;;;;;;;;;;10365466;28;20458;-75
2023/10/22 01:17:25;;;;;;;1.10;0.40;;;;;;;;;;10362988;28;20034;-75
2023/10/22 01:22:28;;;;;;;1.77;0.60;;;;;;;;;;10363165;28;20057;-75
2023/10/22 01:27:35;;;;;;;1.30;0.52;;;;;;;;;;10363535;28;20376;-75
2023/10/22 01:32:38;;;;;;;2.20;0.63;;;;;;;;;;10361866;28;20042;-75
2023/10/22 01:37:41;;;;;;;1.23;0.63;;;;;;;;;;10357864;28;20522;-75
2023/10/22 01:42:46;;;;;;;2.30;0.82;;;;;;;;;;10381845;22;20431;-75
2023/10/22 01:47:50;;;;;;;2.50;0.65;;;;;;;;;;10384624;28;20049;-75
2023/10/22 01:52:54;;;;;;;5.13;0.90;;;;;;;;;;10408956;28;20548;-75
2023/10/22 01:57:59;;;;;;;2.92;0.93;;;;;;;;;;10410334;28;20120;-75
2023/10/22 02:03:02;;;;;;;3.47;0.93;;;;;;;;;;10408772;28;20044;-75
2023/10/22 02:08:06;;;;;;;1.25;0.65;;;;;;;;;;10409670;28;20037;-75
2023/10/22 02:13:11;;;;;;;3.75;1.00;;;;;;;;;;10408080;28;20518;-75
2023/10/22 02:18:14;;;;;;;4.22;0.70;;;;;;;;;;10407528;28;20061;-75
2023/10/22 02:23:18;;;;;;;2.53;0.60;;;;;;;;;;10412450;28;20122;-75
2023/10/22 02:28:23;;;;;;;2.47;0.75;;;;;;;;;;10414413;28;20495;-75
2023/10/22 02:33:27;;;;;;;3.67;0.90;;;;;;;;;;10407927;28;20047;-75
2023/10/22 02:38:30;;;;;;;1.35;0.70;;;;;;;;;;10411676;28;20104;-75
2023/10/22 02:43:34;;;;;;;1.77;0.52;;;;;;;;;;10407090;28;20072;-75
2023/10/22 02:48:38;;;;;;;2.60;0.70;;;;;;;;;;10406858;28;20046;-75
2023/10/22 02:53:41;;;;;;;3.05;0.90;;;;;;;;;;10409349;28;20045;-76
2023/10/22 02:58:46;;;;;;;2.75;0.70;;;;;;;;;;10411943;28;20060;-75
2023/10/22 03:03:49;;;;;;;2.78;1.00;;;;;;;;;;10409375;28;20132;-76
2023/10/22 03:08:53;;;;;;;1.58;0.70;;;;;;;;;;10412691;28;20070;-75
2023/10/22 03:13:58;;;;;;;2.17;0.75;;;;;;;;;;10411666;28;20052;-75
2023/10/22 03:19:01;;;;;;;1.70;0.47;;;;;;;;;;10415961;28;20513;-75
2023/10/22 03:24:07;;;;;;;3.65;0.55;;;;;;;;;;10405858;28;20037;-75
2023/10/22 03:29:11;;;;;;;2.63;0.75;;;;;;;;;;10407013;28;20037;-75
2023/10/22 03:34:15;;;;;;;1.98;0.80;;;;;;;;;;10406824;28;20668;-76
2023/10/22 03:39:18;;;;;;;2.97;0.93;;;;;;;;;;10411311;28;20502;-75
2023/10/22 03:44:23;;;;;;;1.48;0.63;;;;;;;;;;10411783;28;20120;-75
2023/10/22 03:49:27;;;;;;;0.83;0.40;;;;;;;;;;10402437;28;20088;-75
2023/10/22 03:54:30;;;;;;;1.33;0.70;;;;;;;;;;10406997;28;20510;-75
2023/10/22 03:59:35;;;;;;;3.05;0.77;;;;;;;;;;10405700;28;20495;-75
2023/10/22 04:04:38;;;;;;;3.35;0.88;;;;;;;;;;10408511;28;20049;-75
2023/10/22 04:09:42;;;;;;;2.00;0.60;;;;;;;;;;10405341;28;20053;-75
2023/10/22 04:14:48;;;;;;;1.33;0.55;;;;;;;;;;10411959;28;20061;-75
2023/10/22 04:19:51;;;;;;;1.42;0.55;;;;;;;;;;10404259;28;20047;-75
2023/10/22 04:24:54;;;;;;;2.80;0.80;;;;;;;;;;10412827;28;20049;-75
2023/10/22 04:29:59;;;;;;;1.88;0.77;;;;;;;;;;10409172;28;20511;-75
2023/10/22 04:35:03;;;;;;;2.60;0.82;;;;;;;;;;10415002;28;20079;-75
2023/10/22 04:40:08;;;;;;;4.13;1.00;;;;;;;;;;10401103;28;20048;-75
2023/10/22 04:45:13;;;;;;;4.65;0.70;;;;;;;;;;10411024;28;20206;-75
2023/10/22 04:50:17;;;;;;;3.55;0.80;;;;;;;;;;10404173;28;20067;-75
2023/10/22 04:55:20;;;;;;;1.92;0.60;;;;;;;;;;10409403;28;20041;-75
2023/10/22 05:00:25;;;;;;;3.95;1.05;;;;;;;;;;10407916;28;20042;-75
2023/10/22 05:05:28;;;;;;;2.13;0.70;;;;;;;;;;10402594;28;20057;-75
2023/10/22 05:10:31;;;;;;;1.75;0.68;;;;;;;;;;10402448;28;20049;-75
2023/10/22 05:15:36;;;;;;;2.40;0.70;;;;;;;;;;10404589;28;20049;-75
2023/10/22 05:20:40;;;;;;;1.10;0.50;;;;;;;;;;10409831;28;20060;-75
2023/10/22 05:25:43;;;;;;;1.20;0.47;;;;;;;;;;10411897;28;20132;-75
2023/10/22 05:30:47;;;;;;;2.03;0.50;;;;;;;;;;10411653;28;20042;-74
2023/10/22 05:35:54;;;;;;;1.40;0.70;;;;;;;;;;10414499;28;20053;-75
2023/10/22 05:40:57;;;;;;;1.05;0.43;;;;;;;;;;10416298;28;20049;-75
2023/10/22 05:46:02;;;;;;;1.92;0.70;;;;;;;;;;10416401;28;20534;-75
2023/10/22 05:51:05;;;;;;;1.55;0.73;;;;;;;;;;10405062;28;20075;-75
2023/10/22 05:56:09;;;;;;;2.92;0.93;;;;;;;;;;10409140;28;20073;-75
2023/10/22 06:01:14;;;;;;;2.35;0.95;;;;;;;;;;10410531;28;20034;-75
2023/10/22 06:06:20;;;;;;;1.13;0.60;;;;;;;;;;10416591;28;20531;-75
2023/10/22 06:11:24;;;;;;;1.55;0.73;;;;;;;;;;10410341;28;20042;-75
2023/10/22 06:16:28;;;;;;;0.93;0.45;;;;;;;;;;10409789;28;20063;-75
2023/10/22 06:21:32;;;;;;;1.73;0.70;;;;;;;;;;10413503;28;20049;-75
2023/10/22 06:26:35;;;;;;;2.00;0.50;;;;;;;;;;10414089;28;20038;-75
2023/10/22 06:31:39;;;;;;;0.47;0.30;;;;;;;;;;10412539;28;20045;-75
2023/10/22 06:36:43;;;;;;;3.25;0.80;;;;;;;;;;10413736;28;20131;-75
2023/10/22 06:41:47;;;;;;;1.70;0.60;;;;;;;;;;10412779;28;20041;-75
2023/10/22 06:46:56;;;;;;;0.68;0.50;;;;;;;;;;10413083;28;20485;-75
2023/10/22 06:52:00;;;;;;;1.02;0.40;;;;;;;;;;10412076;28;20250;-75
2023/10/22 06:57:03;;;;;;;0.65;0.30;;;;;;;;;;10417080;28;20738;-75
2023/10/22 07:02:08;;;;;;;1.05;0.30;;;;;;;;;;10408208;28;20538;-75
2023/10/22 07:07:11;;;;;;;0.45;0.32;;;;;;;;;;10409307;28;20045;-75
2023/10/22 07:12:15;;;;;;;1.73;0.40;;;;;;;;;;10412998;28;20115;-75
2023/10/22 07:17:19;;;;;;;0.40;0.30;;;;;;;;;;10411497;28;20052;-75
2023/10/22 07:22:23;;;;;;;0.50;0.40;;;;;;;;;;10401767;28;20041;-75
2023/10/22 07:27:26;;;;;;;0.88;0.30;;;;;;;;;;10406435;28;20049;-75
2023/10/22 07:32:31;;;;;;;2.97;0.38;;;;;;;;;;10410919;28;20034;-75
2023/10/22 07:37:35;;;;;;;1.45;0.52;;;;;;;;;;10405560;28;20037;-75
2023/10/22 07:42:39;;;;;;;0.60;0.40;;;;;;;;;;10413841;22;20067;-76
2023/10/22 07:47:43;;;;;;;2.05;0.60;;;;;;;;;;10379368;28;20053;-76
2023/10/22 07:52:47;;;;;;;0.70;0.40;;;;;;;;;;10394529;28;20510;-76
2023/10/22 07:57:50;;;;;;;0.60;0.40;;;;;;;;;;10401323;28;20099;-76
2023/10/22 08:02:56;;;;;;;1.95;0.40;;;;;;;;;;10401859;28;20072;-75
2023/10/22 08:08:00;;;;;;;0.68;0.25;;;;;;;;;;10407427;28;20042;-75
2023/10/22 08:13:03;;;;;;;0.65;0.40;;;;;;;;;;10400310;28;20822;-75
2023/10/22 08:18:09;;;;;;;1.48;0.50;;;;;;;;;;10392933;28;20490;-75
2023/10/22 08:23:12;;;;;;;0.32;0.30;;;;;;;;;;10397061;28;20055;-75
2023/10/22 08:28:15;;;;;;;0.82;0.20;;;;;;;;;;10400353;28;20056;-76
2023/10/22 08:33:20;;;;;;;0.50;0.20;;;;;;;;;;10401951;28;20041;-75
2023/10/22 08:38:24;;;;;;;1.33;0.40;;;;;;;;;;10409978;28;20740;-76
2023/10/22 08:43:32;;;;;;;1.27;0.50;;;;;;;;;;10397212;28;20049;-75
2023/10/22 08:48:38;;;;;;;0.25;0.20;;;;;;;;;;10405626;28;20131;-75
2023/10/22 08:53:41;;;;;;;;;;;;;;;;;;10408002;28;20486;-76
2023/10/22 08:58:45;;;;;;;0.70;0.20;;;;;;;;;;10413767;28;20527;-76
2023/10/22 09:03:50;;;;;;;0.95;0.50;;;;;;;;;;10413771;28;20044;-76
2023/10/22 09:08:54;;;;;;;0.57;0.40;;;;;;;;;;10414131;28;20045;-76
2023/10/22 09:13:59;;;;;;;;;;;;;;;;;;10429121;28;20041;-76
2023/10/22 09:19:04;;;;;;;0.22;0.22;;;;;;;;;;10412859;28;19920;-76
2023/10/22 09:24:08;;;;;;;0.30;0.28;;;;;;;;;;10402058;28;20042;-76
2023/10/22 09:29:12;;;;;;;0.85;0.28;;;;;;;;;;10403470;28;20048;-76
2023/10/22 09:34:31;;;;;;;1.58;0.45;;;;;;;;;;10389406;28;20045;-76
2023/10/22 09:39:36;;;;;;;1.50;0.70;;;;;;;;;;10392287;28;20095;-76
2023/10/22 09:44:43;;;;;;;1.30;0.28;;;;;;;;;;10407956;28;20156;-76
2023/10/22 09:49:52;;;;;;;0.32;0.30;;;;;;;;;;10408082;28;20446;-76
2023/10/22 09:54:58;;;;;;;0.22;0.17;;;;;;;;;;10418848;28;20045;-76
2023/10/22 10:00:08;;;;;;;0.65;0.40;;;;;;;;;;10403778;28;20063;-76
2023/10/22 10:05:14;;;;;;;1.75;0.40;;;;;;;;;;10408209;28;20041;-76
2023/10/22 10:10:18;;;;;;;0.43;0.30;;;;;;;;;;10396705;28;20049;-76
2023/10/22 10:15:35;;;;;;;0.38;0.20;;;;;;;;;;10396064;28;20490;-76
2023/10/22 10:20:42;;;;;;;0.38;0.30;;;;;;;;;;10410470;28;20183;-76
2023/10/22 10:25:45;;;;;;;0.77;0.30;;;;;;;;;;10405841;28;20434;-76
2023/10/22 10:30:52;;;;;;;0.60;0.43;;;;;;;;;;10416620;28;20041;-75
2023/10/22 10:35:58;;;;;;;0.70;0.30;;;;;;;;;;10415910;28;20045;-76
2023/10/22 10:41:02;;;;;;;2.17;0.37;;;;;;;;;;10395705;28;20041;-75
2023/10/22 10:46:29;;;;;;;1.67;0.38;;;;;;;;;;10410994;28;20048;-76
2023/10/22 10:51:34;;;;;;;1.13;0.50;;;;;;;;;;10414504;28;20092;-76
2023/10/22 10:56:52;;;;;;;0.93;0.40;;;;;;;;;;10408544;28;20057;-76
2023/10/22 11:02:00;;;;;;;0.50;0.28;;;;;;;;;;10390280;28;20499;-75
2023/10/22 11:07:08;;;;;;;0.75;0.40;;;;;;;;;;10409999;28;20411;-76
2023/10/22 11:12:21;;;;;;;1.02;0.20;;;;;;;;;;10403629;28;20100;-76
2023/10/22 11:17:25;;;;;;;0.43;0.30;;;;;;;;;;10403994;28;20065;-76
2023/10/22 11:22:31;;;;;;;1.08;0.40;;;;;;;;;;10388757;28;20056;-76
2023/10/22 11:27:36;;;;;;;0.35;0.30;;;;;;;;;;10391323;28;20100;-75
2023/10/22 11:32:48;;;;;;;0.50;0.30;;;;;;;;;;10411358;28;20045;-75
2023/10/22 11:37:54;;;;;;;1.58;0.40;;;;;;;;;;10403990;28;20037;-75
2023/10/22 11:42:59;;;;;;;1.88;0.65;;;;;;;;;;10407774;28;20048;-75
2023/10/22 11:48:22;;;;;;;1.40;0.70;;;;;;;;;;10407379;28;20045;-75
2023/10/22 11:53:40;;;;;;;0.25;0.20;;;;;;;;;;10391519;28;20033;-75
2023/10/22 11:58:52;;;;;;;1.10;0.50;;;;;;;;;;10406338;28;20064;-75
2023/10/22 12:03:56;;;;;;;0.55;0.32;;;;;;;;;;10407710;28;20046;-75
2023/10/22 12:09:03;;;;;;;2.78;0.50;;;;;;;;;;10407382;28;20053;-74
2023/10/22 12:14:06;;;;;;;0.80;0.30;;;;;;;;;;10402807;28;20395;-75
2023/10/22 12:19:10;;;;;;;1.15;0.52;;;;;;;;;;10403268;28;20140;-75
2023/10/22 12:24:50;;;;;;;;;;;;;;;;;;;;;
2023/10/22 12:30:34;;;;;;;0.85;0.50;;;;;;;;;;10371010;28;20126;-76
2023/10/22 12:36:29;;;;;;;0.73;0.40;;;;;;;;;;10331928;28;20078;-77
2023/10/22 13:29:00;;;;;;;1.27;0.70;;;;;;;;;;10409905;28;20046;-90
2023/10/22 13:34:05;;;;;;;1.48;0.60;;;;;;;;;;10412100;28;20128;-90
2023/10/22 13:39:09;;;;;;;2.95;0.98;;;;;;;;;;10399784;28;20420;-91
2023/10/22 13:44:21;;;;;;;1.10;0.35;;;;;;;;;;10401913;23;20433;-77
2023/10/22 13:49:24;;;;;;;1.27;0.68;;;;;;;;;;10371494;28;20605;-77
2023/10/22 13:54:28;;;;;;;0.60;0.50;;;;;;;;;;10354825;28;20061;-76
2023/10/22 13:59:32;;;;;;;1.02;0.50;;;;;;;;;;10348891;28;20064;-76
2023/10/22 14:04:36;;;;;;;1.23;0.70;;;;;;;;;;10357456;28;22678;-76
2023/10/22 14:09:39;;;;;;;1.52;0.52;;;;;;;;;;10353761;28;20054;-76
2023/10/22 14:14:45;;;;;;;0.98;0.30;;;;;;;;;;10352207;28;20511;-77
2023/10/22 14:19:52;;;;;;;1.20;0.45;;;;;;;;;;10340309;28;20053;-76
2023/10/22 14:24:55;;;;;;;1.42;0.35;;;;;;;;;;10359071;28;20062;-76
2023/10/22 14:30:00;;;;;;;0.73;0.32;;;;;;;;;;10353102;28;20549;-76
2023/10/22 14:35:05;;;;;;;2.13;0.52;;;;;;;;;;10362384;28;20045;-76
2023/10/22 14:40:10;;;;;;;2.05;0.47;;;;;;;;;;10346254;28;20491;-76
2023/10/22 14:45:15;;;;;;;0.52;0.30;;;;;;;;;;10348085;28;20043;-77
2023/10/22 14:50:18;;;;;;;0.90;0.40;;;;;;;;;;10352722;28;20462;-76
2023/10/22 14:55:21;;;;;;;0.40;0.30;;;;;;;;;;10351553;28;20057;-76
2023/10/22 15:00:29;;;;;;;0.32;0.25;;;;;;;;;;10352210;28;20093;-76
2023/10/22 15:05:32;;;;;;;1.30;0.60;;;;;;;;;;10341096;28;20112;-76
2023/10/22 15:10:39;;;;;;;1.45;0.52;;;;;;;;;;10355493;28;20046;-76
2023/10/22 15:15:44;;;;;;;1.58;0.65;;;;;;;;;;10334270;28;20069;-76
2023/10/22 15:20:49;;;;;;;1.63;0.60;;;;;;;;;;10355170;28;20523;-76
2023/10/22 15:25:53;;;;;;;0.93;0.60;;;;;;;;;;10352521;28;20051;-76
2023/10/22 15:30:57;;;;;;;0.70;0.38;;;;;;;;;;10350977;28;20037;-76
2023/10/22 15:36:02;;;;;;;1.60;0.55;;;;;;;;;;10355303;28;20046;-76
2023/10/22 15:41:06;;;;;;;1.70;0.50;;;;;;;;;;10342624;28;20052;-76
2023/10/22 15:46:20;;;;;;;2.38;0.45;;;;;;;;;;10335669;28;20426;-76
2023/10/22 15:51:25;;;;;;;1.10;0.50;;;;;;;;;;10350234;28;20105;-76
2023/10/22 15:56:29;;;;;;;0.63;0.32;;;;;;;;;;10356383;28;20064;-76
2023/10/22 16:01:34;;;;;;;0.60;0.30;;;;;;;;;;10348956;28;20061;-76
2023/10/22 16:06:37;;;;;;;0.40;0.35;;;;;;;;;;10351653;28;20061;-75
2023/10/22 16:11:41;;;;;;;1.27;0.30;;;;;;;;;;10340208;28;20050;-76
2023/10/22 16:16:46;;;;;;;0.55;0.30;;;;;;;;;;10357004;28;20053;-76
2023/10/22 16:21:50;;;;;;;0.30;0.30;;;;;;;;;;10332790;28;20049;-76
2023/10/22 16:26:53;;;;;;;0.30;0.30;;;;;;;;;;10346008;28;20046;-76
2023/10/22 16:31:58;;;;;;;0.20;0.20;;;;;;;;;;10358445;28;20072;-76
2023/10/22 16:37:02;;;;;;;1.90;1.20;;;;;;;;;;10352267;28;20096;-76
2023/10/22 16:42:05;;;;;;;2.45;1.73;;;;;;;;;;10348148;28;20111;-75
2023/10/22 16:47:11;;;;;;;2.38;1.70;;;;;;;;;;10354061;28;20104;-76
2023/10/22 16:52:14;;;;;;;1.15;0.80;;;;;;;;;;10353490;28;20062;-76
2023/10/22 16:57:18;;;;;;;0.40;0.40;;;;;;;;;;10353141;28;20054;-76
2023/10/22 17:02:23;;;;;;;0.80;0.60;;;;;;;;;;10358809;28;20043;-76
2023/10/22 17:07:26;;;;;;;4.18;2.10;;;;;;;;;;10345317;28;20415;-75
2023/10/22 17:12:30;;;;;;;2.42;1.65;;;;;;;;;;10367162;28;20111;-76
2023/10/22 17:17:35;;;;;;;4.45;1.98;;;;;;;;;;10338424;28;20058;-76
2023/10/22 17:22:39;;;;;;;657.33;86.38;;;;;;;;;;10361102;28;20049;-75
2023/10/22 17:27:43;;;;;;;3.28;1.77;;;;;;;;;;10357184;28;20108;-75
2023/10/22 17:32:48;;;;;;;1.38;0.85;;;;;;;;;;10357100;28;20057;-76
2023/10/22 17:37:51;;;;;;;1.27;0.85;;;;;;;;;;10360352;28;20583;-75
2023/10/22 17:42:55;;;;;;;0.95;0.85;;;;;;;;;;10366013;28;20048;-76
2023/10/22 17:48:00;;;;;;;5.28;3.05;;;;;;;;;;10357361;28;20098;-76
2023/10/22 17:53:07;;;;;;;6.17;1.97;;;;;;;;;;10367454;28;20587;-75
2023/10/22 17:58:18;;;;;;;2.00;1.17;;;;;;;;;;10358927;28;20487;-75
2023/10/22 18:03:22;;;;;;;2.65;1.23;;;;;;;;;;10359154;28;20045;-75
2023/10/22 18:08:28;;;;;;;1.50;0.80;;;;;;;;;;10350917;28;20057;-75
2023/10/22 18:13:32;;;;;;;1.50;0.85;;;;;;;;;;10360670;28;20605;-75
2023/10/22 18:18:37;;;;;;;1.00;0.70;;;;;;;;;;10349029;28;20504;-75
2023/10/22 18:23:40;;;;;;;2.55;0.88;;;;;;;;;;10349490;28;20058;-75
2023/10/22 18:28:44;;;;;;;2.03;0.90;;;;;;;;;;10348313;28;20054;-75
2023/10/22 18:33:49;;;;;;;1.33;0.65;;;;;;;;;;10357753;28;20060;-75
2023/10/22 18:38:52;;;;;;;0.75;0.55;;;;;;;;;;10351893;28;20077;-75
2023/10/22 18:43:56;;;;;;;1.05;0.70;;;;;;;;;;10359200;28;20416;-75
2023/10/22 18:49:03;;;;;;;1.17;0.80;;;;;;;;;;10347288;28;20049;-75
2023/10/22 18:54:08;;;;;;;2.20;0.80;;;;;;;;;;10344279;28;20379;-75
2023/10/22 18:59:12;;;;;;;1.00;0.60;;;;;;;;;;10352471;28;20512;-75
2023/10/22 19:04:17;;;;;;;1.30;0.80;;;;;;;;;;10355092;28;20052;-75
2023/10/22 19:09:20;;;;;;;1.38;0.70;;;;;;;;;;10352482;28;20046;-75
2023/10/22 19:14:24;;;;;;;2.53;0.77;;;;;;;;;;10350712;28;20041;-75
2023/10/22 19:19:29;;;;;;;1.30;0.88;;;;;;;;;;10287295;28;20047;-75
2023/10/22 19:24:32;;;;;;;1.17;0.55;;;;;;;;;;10240032;28;20047;-75
2023/10/22 19:29:36;;;;;;;1.90;0.80;;;;;;;;;;10190291;29;20059;-75
2023/10/22 19:34:40;;;;;;;2.83;1.05;;;;;;;;;;10208028;29;20545;-75
2023/10/22 19:39:45;;;;;;;1.42;1.10;;;;;;;;;;10201644;29;20163;-75
2023/10/22 19:50:49;;;;;;;2.38;1.65;;;;;;;;;;10253161;23;20043;-76
2023/10/22 20:11:04;;;;;;;;;;;;;;;;;;;;;
2023/10/22 20:16:25;;;;;;;1.27;0.93;;;;;;;;;;10244875;28;20168;-76
2023/10/22 20:21:29;;;;;;;1.52;1.10;;;;;;;;;;10275194;28;20053;-76
2023/10/22 20:26:37;;;;;;;2.03;1.13;;;;;;;;;;10292632;28;20464;-76
2023/10/22 20:31:45;;;;;;;0.82;0.60;;;;;;;;;;10291575;28;20058;-76
2023/10/22 20:36:48;;;;;;;1.95;0.60;;;;;;;;;;10289001;28;20059;-76
2023/10/22 20:41:52;;;;;;;1.13;0.68;;;;;;;;;;10288956;28;20528;-76
2023/10/22 20:46:57;;;;;;;0.68;0.55;;;;;;;;;;10287879;28;20058;-76
2023/10/22 20:52:00;;;;;;;0.73;0.50;;;;;;;;;;10279719;28;20065;-76
2023/10/22 20:57:08;;;;;;;0.80;0.60;;;;;;;;;;10288633;28;20129;-76
2023/10/22 21:02:15;;;;;;;1.47;0.90;;;;;;;;;;10284733;28;20487;-76
2023/10/22 21:07:18;;;;;;;0.70;0.70;;;;;;;;;;10283479;28;20046;-76
2023/10/22 21:12:22;;;;;;;1.33;1.02;;;;;;;;;;10285022;28;20100;-76
2023/10/22 21:17:27;;;;;;;1.70;1.00;;;;;;;;;;10282574;28;20047;-76
2023/10/22 21:22:37;;;;;;;1.63;0.98;;;;;;;;;;10278673;28;20675;-76
2023/10/22 21:27:41;;;;;;;1.50;0.90;;;;;;;;;;10282219;28;20050;-76
2023/10/22 21:32:48;;;;;;;0.90;0.65;;;;;;;;;;10286584;28;20055;-76
2023/10/22 21:37:51;;;;;;;1.75;0.68;;;;;;;;;;10278455;28;20585;-76
2023/10/22 21:42:55;;;;;;;1.85;0.75;;;;;;;;;;10280095;28;20047;-76
2023/10/22 21:48:00;;;;;;;2.13;0.70;;;;;;;;;;10283021;28;20705;-76
2023/10/22 21:53:03;;;;;;;1.58;0.80;;;;;;;;;;10278331;28;20059;-76
2023/10/22 21:58:07;;;;;;;3.65;0.60;;;;;;;;;;10279577;28;20047;-76
2023/10/22 22:03:13;;;;;;;1.10;0.63;;;;;;;;;;10288838;28;20047;-76
2023/10/22 22:08:16;;;;;;;0.98;0.50;;;;;;;;;;10289395;28;20043;-76
2023/10/22 22:13:20;;;;;;;1.60;0.68;;;;;;;;;;10295898;28;20520;-76
2023/10/22 22:18:24;;;;;;;1.15;0.60;;;;;;;;;;10284369;28;20047;-76
2023/10/22 22:23:28;;;;;;;1.40;0.60;;;;;;;;;;10282442;28;20055;-76
2023/10/22 22:28:31;;;;;;;1.48;0.73;;;;;;;;;;10286202;28;20069;-76
2023/10/22 22:33:36;;;;;;;2.35;0.90;;;;;;;;;;10288354;28;20050;-76
2023/10/22 22:38:40;;;;;;;0.95;0.60;;;;;;;;;;10290206;28;20090;-76
2023/10/22 22:43:44;;;;;;;1.10;0.68;;;;;;;;;;10288896;28;20058;-76
2023/10/22 22:48:48;;;;;;;2.92;0.65;;;;;;;;;;10285565;28;20051;-76
2023/10/22 22:53:52;;;;;;;1.75;0.73;;;;;;;;;;10290019;28;20042;-76
2023/10/22 22:58:55;;;;;;;1.42;0.60;;;;;;;;;;10289589;28;20050;-76
2023/10/22 23:04:00;;;;;;;2.33;0.60;;;;;;;;;;10270743;28;20046;-76
2023/10/22 23:09:04;;;;;;;1.40;0.75;;;;;;;;;;10292873;28;20079;-76
2023/10/22 23:14:08;;;;;;;2.85;0.52;;;;;;;;;;10281958;28;20042;-76
2023/10/22 23:19:13;;;;;;;0.90;0.47;;;;;;;;;;10284971;28;20464;-76
2023/10/22 23:24:16;;;;;;;1.85;0.80;;;;;;;;;;10290424;28;20532;-76
2023/10/22 23:29:20;;;;;;;1.27;0.63;;;;;;;;;;10285109;28;20047;-76
2023/10/22 23:34:25;;;;;;;3.03;0.85;;;;;;;;;;10288756;28;20051;-76
2023/10/22 23:39:28;;;;;;;1.02;0.70;;;;;;;;;;10288669;28;20051;-76
2023/10/22 23:44:32;;;;;;;3.00;1.00;;;;;;;;;;10285796;28;20046;-76
2023/10/22 23:49:36;;;;;;;1.40;0.63;;;;;;;;;;10281399;28;20110;-76
2023/10/22 23:54:40;;;;;;;0.95;0.80;;;;;;;;;;10326896;28;20452;-76
2023/10/22 23:59:44;;;;;;;1.42;0.60;;;;;;;;;;10326853;28;20042;-76
